Time;durP1;ratioP1;P1;durP2;ratioP2;P2;SDS_P1;SDS_P2;PMS_P1;PMS_P2;Temp;Humidity;BMP_temperature;BMP_pressure;BME280_temperature;BME280_humidity;BME280_pressure;Samples;Min_cycle;Max_cycle;Signal;HPM_P1;HPM_P2
2021/01/20 00:01:14;;;;;;;3.07;1.80;;;8.40;99.10;;;;;;6152168;23;20407;-85
2021/01/20 00:07:13;;;;;;;4.30;2.03;;;8.30;99.10;;;;;;6095898;23;20408;-84
2021/01/20 00:10:02;;;;;;;2.70;2.40;;;8.50;99.00;;;;;;6072174;23;20409;-84
2021/01/20 00:12:44;;;;;;;3.17;2.10;;;8.50;99.20;;;;;;6093876;23;20413;-84
2021/01/20 00:15:39;;;;;;;7.40;3.07;;;8.50;99.20;;;;;;6074858;23;20448;-85
2021/01/20 00:18:56;;;;;;;2.17;1.90;;;8.20;99.90;;;;;;6095847;23;20432;-85
2021/01/20 00:21:34;;;;;;;6.13;2.53;;;8.10;99.90;;;;;;6067977;23;20451;-85
2021/01/20 00:24:22;;;;;;;2.90;2.03;;;8.20;99.90;;;;;;6075627;23;20475;-84
2021/01/20 00:27:28;;;;;;;3.13;2.27;;;8.20;99.90;;;;;;6090559;23;20456;-84
2021/01/20 00:33:56;;;;;;;4.67;2.37;;;8.10;99.90;;;;;;6084850;23;20379;-83
2021/01/20 00:36:43;;;;;;;5.23;2.97;;;8.20;99.90;;;;;;6099682;23;20467;-84
2021/01/20 00:39:26;;;;;;;3.20;2.73;;;8.00;99.90;;;;;;6097554;23;20589;-84
2021/01/20 00:42:23;;;;;;;3.53;2.10;;;8.00;99.90;;;;;;6091278;23;20412;-85
2021/01/20 00:45:17;;;;;;;4.77;2.23;;;8.10;99.90;;;;;;6064765;23;20508;-84
2021/01/20 00:48:08;;;;;;;4.33;2.40;;;8.10;99.90;;;;;;6092938;23;20408;-86
2021/01/20 00:51:04;;;;;;;3.00;2.40;;;8.10;99.90;;;;;;6091680;23;20436;-85
2021/01/20 00:54:02;;;;;;;2.27;2.00;;;8.10;99.90;;;;;;6088694;23;20773;-85
2021/01/20 00:56:52;;;;;;;4.73;2.47;;;8.20;99.90;;;;;;6092928;23;20424;-87
2021/01/20 00:59:45;;;;;;;2.80;2.20;;;8.20;99.70;;;;;;6091402;23;20515;-85
2021/01/20 01:02:26;;;;;;;2.97;2.33;;;8.20;99.50;;;;;;6068123;23;20896;-84
2021/01/20 01:05:10;;;;;;;3.77;2.20;;;8.20;99.30;;;;;;6080240;23;20451;-85
2021/01/20 01:08:29;;;;;;;2.80;2.10;;;8.20;99.40;;;;;;6009277;23;20553;-84
2021/01/20 01:11:28;;;;;;;2.50;2.30;;;8.30;99.30;;;;;;5985066;23;20418;-84
2021/01/20 01:14:35;;;;;;;4.80;2.13;;;8.20;99.10;;;;;;6026502;23;20950;-84
2021/01/20 01:17:18;;;;;;;2.83;2.20;;;8.20;98.90;;;;;;6027331;23;20509;-86
2021/01/20 01:19:55;;;;;;;3.87;2.50;;;8.20;98.90;;;;;;6005533;23;20454;-84
2021/01/20 01:22:54;;;;;;;2.50;2.30;;;8.20;98.70;;;;;;6007414;23;20398;-85
2021/01/20 01:26:13;;;;;;;3.20;2.70;;;8.20;98.80;;;;;;6011317;23;21015;-83
2021/01/20 01:28:58;;;;;;;2.33;2.10;;;8.20;98.60;;;;;;6008013;23;20440;-84
2021/01/20 01:31:54;;;;;;;3.10;2.90;;;8.20;98.90;;;;;;6031107;23;20427;-82
2021/01/20 01:34:39;;;;;;;2.43;2.07;;;8.20;98.70;;;;;;6029432;23;20480;-82
2021/01/20 01:37:21;;;;;;;3.30;2.10;;;8.20;98.60;;;;;;6031910;23;20422;-83
2021/01/20 01:39:55;;;;;;;5.40;2.53;;;8.20;98.50;;;;;;6033495;23;20457;-87
2021/01/20 01:43:01;;;;;;;;;;;;;;;;;;;;;
2021/01/20 01:45:43;;;;;;;1.77;1.67;;;8.40;98.00;;;;;;6117511;23;20442;-83
2021/01/20 01:48:36;;;;;;;;;;;;;;;;;;;;;
2021/01/20 02:15:34;;;;;;;2.33;2.07;;;8.20;96.70;;;;;;6111358;23;20422;-84
2021/01/20 02:37:34;;;;;;;3.73;2.43;;;8.80;95.40;;;;;;6120197;23;20383;-83
2021/01/20 02:43:34;;;;;;;2.30;2.10;;;8.60;95.90;;;;;;6122926;23;20468;-85
2021/01/20 02:46:06;;;;;;;2.87;2.20;;;8.30;96.40;;;;;;6157862;23;20450;-85
2021/01/20 02:48:52;;;;;;;2.73;1.80;;;8.30;96.80;;;;;;6154807;23;20835;-85
2021/01/20 02:51:28;;;;;;;3.30;2.23;;;8.20;96.60;;;;;;6151431;23;20454;-85
2021/01/20 02:57:16;;;;;;;7.70;2.67;;;8.00;97.10;;;;;;6149260;23;20414;-84
2021/01/20 03:00:13;;;;;;;;;;;;;;;;;;;;;
2021/01/20 03:02:59;;;;;;;3.60;2.17;;;7.90;96.80;;;;;;6148234;23;20500;-81
2021/01/20 03:05:53;;;;;;;2.80;2.10;;;7.90;96.80;;;;;;6155470;23;20438;-84
2021/01/20 03:08:44;;;;;;;2.30;1.60;;;7.90;96.90;;;;;;6169216;23;20417;-86
2021/01/20 03:11:53;;;;;;;3.03;1.57;;;7.90;97.20;;;;;;6174921;23;20403;-88
2021/01/20 03:14:43;;;;;;;5.53;2.50;;;7.90;97.40;;;;;;6144518;23;20411;-86
2021/01/20 03:17:21;;;;;;;4.57;2.50;;;7.80;97.90;;;;;;6159088;23;20746;-85
2021/01/20 03:20:19;;;;;;;3.77;2.90;;;7.80;98.10;;;;;;6151572;23;20471;-85
2021/01/20 03:23:00;;;;;;;4.00;2.47;;;7.80;98.50;;;;;;6153785;23;20414;-85
2021/01/20 03:25:43;;;;;;;2.50;2.00;;;8.00;98.30;;;;;;6154716;23;20423;-84
2021/01/20 03:28:25;;;;;;;3.90;2.67;;;8.10;98.10;;;;;;6154738;23;20532;-86
2021/01/20 03:31:16;;;;;;;2.90;2.27;;;8.10;98.20;;;;;;6151485;23;20704;-85
2021/01/20 03:34:07;;;;;;;2.23;1.87;;;8.00;98.00;;;;;;6032898;23;20618;-85
2021/01/20 03:36:39;;;;;;;3.90;2.53;;;7.90;98.40;;;;;;6033432;23;20449;-85
2021/01/20 03:39:32;;;;;;;5.43;2.87;;;7.90;98.70;;;;;;6019507;23;20467;-86
2021/01/20 03:42:15;;;;;;;2.63;2.43;;;8.00;98.50;;;;;;6013467;23;20455;-85
2021/01/20 03:44:53;;;;;;;2.00;1.80;;;7.90;98.40;;;;;;6028986;23;20548;-84
2021/01/20 03:47:36;;;;;;;3.10;2.30;;;8.00;98.50;;;;;;6030527;23;20424;-84
2021/01/20 03:50:29;;;;;;;2.17;1.73;;;8.10;98.40;;;;;;6007576;23;20929;-84
2021/01/20 03:53:09;;;;;;;2.80;2.40;;;8.10;98.20;;;;;;6009947;23;21364;-83
2021/01/20 03:55:47;;;;;;;2.30;2.10;;;8.20;97.90;;;;;;6006812;23;20984;-84
2021/01/20 03:58:23;;;;;;;2.20;1.80;;;8.20;97.70;;;;;;6030262;23;20414;-84
2021/01/20 04:00:58;;;;;;;3.40;2.53;;;8.20;97.80;;;;;;6007111;23;20501;-86
2021/01/20 04:03:39;;;;;;;2.37;2.17;;;8.20;97.80;;;;;;5954013;24;20419;-83
2021/01/20 04:06:15;;;;;;;2.00;1.70;;;8.20;98.00;;;;;;5972151;23;20446;-84
2021/01/20 04:09:00;;;;;;;;;;;;;;;;;;;;;
2021/01/20 04:11:29;;;;;;;2.93;2.43;;;8.30;98.00;;;;;;6044215;23;20480;-82
2021/01/20 04:14:01;;;;;;;3.67;2.70;;;8.30;98.00;;;;;;6090950;23;20968;-82
2021/01/20 04:19:37;;;;;;;2.30;2.10;;;8.40;98.20;;;;;;6082350;23;20491;-83
2021/01/20 04:22:12;;;;;;;5.40;2.90;;;8.30;98.10;;;;;;6069723;23;20407;-84
2021/01/20 04:24:49;;;;;;;2.70;2.50;;;8.30;98.10;;;;;;6067564;23;20437;-85
2021/01/20 04:27:23;;;;;;;4.00;2.97;;;8.30;98.30;;;;;;6088458;23;21039;-83
2021/01/20 04:29:57;;;;;;;2.93;2.73;;;8.30;98.10;;;;;;6091410;23;20420;-84
2021/01/20 04:32:56;;;;;;;3.90;2.93;;;8.30;98.00;;;;;;6100508;23;20409;-85
2021/01/20 04:35:26;;;;;;;2.57;2.10;;;8.30;97.80;;;;;;6077323;23;20503;-85
2021/01/20 04:37:52;;;;;;;3.33;2.43;;;8.30;98.10;;;;;;6074240;23;20417;-85
2021/01/20 04:40:20;;;;;;;3.43;2.87;;;8.40;98.00;;;;;;6082533;23;20458;-83
2021/01/20 04:42:50;;;;;;;3.40;2.70;;;8.60;97.50;;;;;;6175852;23;20411;-85
2021/01/20 04:45:22;;;;;;;3.67;3.33;;;8.50;97.70;;;;;;6147547;23;20438;-83
2021/01/20 04:47:52;;;;;;;2.93;2.73;;;8.50;97.50;;;;;;6162171;23;20418;-86
2021/01/20 04:50:25;;;;;;;4.67;3.00;;;8.60;97.10;;;;;;6150651;23;20450;-86
2021/01/20 04:53:10;;;;;;;4.20;3.10;;;8.60;97.00;;;;;;6152139;23;20389;-85
2021/01/20 04:55:45;;;;;;;4.87;2.97;;;8.70;96.90;;;;;;6148160;23;20492;-84
2021/01/20 04:58:20;;;;;;;3.20;2.90;;;8.90;96.50;;;;;;6151216;23;20402;-86
2021/01/20 05:01:21;;;;;;;2.97;2.37;;;8.90;96.30;;;;;;6157002;23;20560;-87
2021/01/20 05:04:09;;;;;;;2.07;1.97;;;8.90;96.10;;;;;;6149711;23;20917;-86
2021/01/20 05:06:49;;;;;;;3.30;2.90;;;8.80;96.20;;;;;;6151726;23;20475;-83
2021/01/20 05:09:35;;;;;;;4.67;3.30;;;8.70;96.20;;;;;;6152169;23;20493;-84
2021/01/20 05:12:38;;;;;;;3.17;2.90;;;8.60;96.70;;;;;;6153802;23;20422;-82
2021/01/20 05:15:17;;;;;;;2.50;1.90;;;8.60;96.60;;;;;;6178994;23;20493;-81
2021/01/20 05:18:12;;;;;;;3.47;3.10;;;8.50;96.90;;;;;;6152970;23;20418;-84
2021/01/20 05:21:06;;;;;;;2.20;2.00;;;8.50;97.00;;;;;;6109944;23;20453;-82
2021/01/20 05:23:44;;;;;;;3.83;2.70;;;8.40;97.10;;;;;;6154881;23;20417;-83
2021/01/20 05:26:41;;;;;;;4.33;2.50;;;8.30;97.40;;;;;;6191178;23;20453;-82
2021/01/20 05:29:31;;;;;;;4.17;2.80;;;8.30;97.30;;;;;;6054927;23;20698;-82
2021/01/20 05:32:46;;;;;;;4.40;3.20;;;8.10;97.60;;;;;;6036107;23;20446;-83
2021/01/20 05:35:32;;;;;;;4.10;2.77;;;8.30;97.30;;;;;;6016237;23;20434;-83
2021/01/20 05:38:09;;;;;;;4.73;2.57;;;8.30;97.20;;;;;;6029092;23;20414;-82
2021/01/20 05:41:20;;;;;;;3.70;2.80;;;8.20;97.30;;;;;;6037178;23;20393;-83
2021/01/20 05:44:27;;;;;;;;;;;;;;;;;;;;;
2021/01/20 05:47:20;;;;;;;2.50;2.17;;;8.20;97.40;;;;;;6043884;23;20437;-82
2021/01/20 05:50:07;;;;;;;3.90;2.53;;;8.20;97.60;;;;;;6044703;23;20422;-83
2021/01/20 05:53:04;;;;;;;3.20;2.90;;;8.30;97.60;;;;;;6079722;23;20429;-84
2021/01/20 05:55:41;;;;;;;3.10;2.77;;;8.30;97.50;;;;;;6196338;23;20500;-83
2021/01/20 05:58:41;;;;;;;2.30;2.10;;;8.30;97.40;;;;;;6163960;23;20464;-84
2021/01/20 06:01:52;;;;;;;3.17;2.30;;;8.40;97.20;;;;;;6180286;23;20468;-83
2021/01/20 06:04:34;;;;;;;3.90;2.37;;;8.40;97.20;;;;;;6158820;23;20441;-84
2021/01/20 06:07:29;;;;;;;3.50;2.50;;;8.40;97.20;;;;;;6181862;23;20469;-84
2021/01/20 06:10:12;;;;;;;2.37;2.10;;;8.40;97.30;;;;;;6157804;23;20833;-83
2021/01/20 06:13:16;;;;;;;2.77;2.17;;;8.40;97.40;;;;;;6182519;23;20390;-82
2021/01/20 06:16:05;;;;;;;4.20;2.50;;;8.50;97.30;;;;;;6159939;23;20457;-82
2021/01/20 06:19:06;;;;;;;3.07;2.50;;;8.60;97.10;;;;;;6180960;23;20406;-82
2021/01/20 06:21:51;;;;;;;4.27;2.70;;;8.60;96.80;;;;;;6155763;23;20405;-82
2021/01/20 06:24:51;;;;;;;3.53;2.17;;;8.60;96.90;;;;;;6161794;23;20800;-83
2021/01/20 06:28:13;;;;;;;3.63;2.20;;;8.60;97.10;;;;;;6169103;23;20402;-81
2021/01/20 06:31:04;;;;;;;2.83;2.27;;;8.80;96.90;;;;;;6054485;23;20421;-81
2021/01/20 06:37:48;;;;;;;2.50;1.57;;;8.90;96.00;;;;;;6185885;23;20464;-83
2021/01/20 06:40:40;;;;;;;;;;;;;;;;;;;;;
2021/01/20 06:43:51;;;;;;;5.27;2.20;;;8.90;96.20;;;;;;6039412;23;21037;-81
2021/01/20 06:46:37;;;;;;;2.93;2.53;;;9.00;95.80;;;;;;6040035;23;20461;-83
2021/01/20 06:49:14;;;;;;;3.27;2.37;;;8.90;95.70;;;;;;6040386;23;20457;-83
2021/01/20 06:52:11;;;;;;;3.17;2.30;;;8.90;95.70;;;;;;6018331;23;20418;-82
2021/01/20 06:55:02;;;;;;;2.03;1.90;;;9.00;95.70;;;;;;6037143;23;20450;-83
2021/01/20 06:58:30;;;;;;;;;;;;;;;;;;;;;
2021/01/20 07:01:30;;;;;;;1.90;1.77;;;9.20;95.20;;;;;;6041021;23;20410;-84
2021/01/20 07:04:40;;;;;;;2.93;2.00;;;9.30;94.80;;;;;;6038697;23;20429;-85
2021/01/20 07:07:39;;;;;;;2.80;2.47;;;9.20;95.00;;;;;;6107592;23;20414;-85
2021/01/20 07:11:01;;;;;;;2.60;2.17;;;9.10;95.10;;;;;;6164102;23;20501;-82
2021/01/20 07:14:17;;;;;;;3.17;2.17;;;9.10;95.10;;;;;;6161358;23;20425;-83
2021/01/20 07:17:14;;;;;;;7.80;2.60;;;9.10;95.10;;;;;;6129891;23;20460;-83
2021/01/20 07:19:45;;;;;;;3.37;2.40;;;9.10;95.10;;;;;;6157410;23;20481;-84
2021/01/20 07:22:25;;;;;;;1.93;1.40;;;9.10;95.10;;;;;;6157757;23;20417;-83
2021/01/20 07:24:59;;;;;;;3.40;2.30;;;8.90;95.10;;;;;;6178367;23;20485;-83
2021/01/20 07:27:50;;;;;;;3.90;2.40;;;8.70;95.20;;;;;;6183504;23;20850;-82
2021/01/20 07:30:49;;;;;;;2.53;2.13;;;8.70;95.50;;;;;;6172880;23;20402;-82
2021/01/20 07:36:54;;;;;;;2.37;2.17;;;8.70;95.80;;;;;;6152075;23;20785;-83
2021/01/20 07:39:38;;;;;;;2.67;1.93;;;8.70;95.50;;;;;;6143559;23;20838;-82
2021/01/20 07:42:06;;;;;;;2.40;2.20;;;8.60;95.70;;;;;;6152717;23;20416;-81
2021/01/20 07:44:54;;;;;;;2.83;2.23;;;8.70;95.80;;;;;;6127884;23;20411;-81
2021/01/20 07:47:51;;;;;;;2.97;2.50;;;8.70;95.70;;;;;;6159480;23;20425;-79
2021/01/20 07:51:03;;;;;;;3.33;3.03;;;8.80;96.10;;;;;;6152525;23;20497;-81
2021/01/20 07:53:36;;;;;;;3.97;2.30;;;8.90;95.80;;;;;;6089109;23;20424;-81
2021/01/20 07:56:31;;;;;;;2.20;2.00;;;9.20;95.30;;;;;;6144503;23;20458;-80
2021/01/20 07:59:23;;;;;;;2.60;2.07;;;9.20;94.90;;;;;;6131645;23;20446;-80
2021/01/20 08:05:42;;;;;;;1.83;1.73;;;9.30;94.10;;;;;;6165190;23;20430;-80
2021/01/20 08:08:23;;;;;;;2.57;2.37;;;9.30;93.90;;;;;;6140872;23;20409;-82
2021/01/20 08:11:38;;;;;;;2.97;2.50;;;9.30;93.90;;;;;;6147311;23;20407;-82
2021/01/20 08:14:40;;;;;;;4.00;2.20;;;9.40;93.70;;;;;;6146596;23;20473;-82
2021/01/20 08:17:21;;;;;;;4.97;2.97;;;9.40;93.70;;;;;;6151648;23;20536;-82
2021/01/20 08:20:07;;;;;;;3.77;2.67;;;9.30;93.70;;;;;;6151741;23;20505;-82
2021/01/20 08:23:07;;;;;;;2.47;2.27;;;9.30;93.80;;;;;;6148350;23;20418;-82
2021/01/20 08:25:52;;;;;;;2.73;2.20;;;9.40;93.10;;;;;;6152392;23;21021;-81
2021/01/20 08:29:13;;;;;;;5.00;2.37;;;9.40;93.10;;;;;;6123827;23;20465;-84
2021/01/20 08:32:02;;;;;;;3.70;2.30;;;9.30;93.30;;;;;;6164743;23;20407;-81
2021/01/20 08:34:55;;;;;;;3.07;2.77;;;9.20;93.30;;;;;;6170244;23;20510;-82
2021/01/20 08:37:47;;;;;;;5.67;2.83;;;9.10;93.30;;;;;;6144747;23;20473;-82
2021/01/20 08:41:06;;;;;;;3.00;2.60;;;9.20;93.30;;;;;;6158438;23;20435;-82
2021/01/20 08:44:06;;;;;;;4.00;2.57;;;9.20;93.30;;;;;;6157915;23;20431;-81
2021/01/20 08:47:00;;;;;;;2.77;2.40;;;9.30;93.30;;;;;;6151576;23;20432;-81
2021/01/20 09:35:18;;;;;;;3.50;2.80;;;9.50;91.50;;;;;;5946478;24;21039;-81
2021/01/20 09:42:00;;;;;;;5.20;3.33;;;9.60;91.20;;;;;;5924224;23;20924;-81
2021/01/20 09:45:32;;;;;;;;;;;;;;;;;;;;;
2021/01/20 09:48:17;;;;;;;4.50;2.70;;;9.70;90.60;;;;;;6001462;23;20523;-81
2021/01/20 09:50:53;;;;;;;3.30;2.30;;;9.70;90.30;;;;;;6008665;23;20426;-81
2021/01/20 10:02:08;;;;;;;4.57;3.00;;;9.80;89.60;;;;;;6014232;23;20409;-78
2021/01/20 11:12:25;;;;;;;2.50;2.23;;;10.50;82.30;;;;;;6155200;23;20447;-78
2021/01/20 11:15:24;;;;;;;3.00;2.20;;;10.50;82.00;;;;;;6146830;23;20443;-82
2021/01/20 11:22:39;;;;;;;;;;;;;;;;;;;;;
2021/01/20 11:26:18;;;;;;;4.00;2.30;;;10.60;81.40;;;;;;6140530;23;20672;-80
2021/01/20 11:29:33;;;;;;;2.50;2.30;;;10.50;82.40;;;;;;6124073;23;20427;-80
2021/01/20 11:32:00;;;;;;;8.90;2.33;;;10.60;83.10;;;;;;6146632;23;20410;-78
2021/01/20 11:37:09;;;;;;;3.80;2.03;;;10.50;84.90;;;;;;6166771;23;20699;-79
2021/01/20 11:40:01;;;;;;;2.90;2.57;;;10.50;85.90;;;;;;6175537;23;20469;-79
2021/01/20 11:42:35;;;;;;;5.47;2.53;;;10.50;86.50;;;;;;6176143;23;20390;-78
2021/01/20 11:45:07;;;;;;;4.13;2.40;;;10.40;87.20;;;;;;6173631;23;20423;-80
2021/01/20 11:56:41;;;;;;;2.30;2.10;;;10.00;89.20;;;;;;5920604;24;20395;-80
2021/01/20 11:59:12;;;;;;;3.87;2.67;;;10.20;89.40;;;;;;5907763;24;20488;-80
2021/01/20 12:01:41;;;;;;;3.60;2.40;;;10.00;90.00;;;;;;6018851;23;20417;-83
2021/01/20 12:04:12;;;;;;;3.67;2.80;;;10.00;90.50;;;;;;6063449;23;20992;-82
2021/01/20 12:06:49;;;;;;;3.33;3.03;;;9.90;90.80;;;;;;6061873;23;20851;-81
2021/01/20 12:13:33;;;;;;;2.87;2.50;;;9.90;91.00;;;;;;6049250;23;20414;-79
2021/01/20 12:16:15;;;;;;;6.33;2.93;;;9.90;91.30;;;;;;6068889;23;20508;-80
2021/01/20 12:19:02;;;;;;;3.50;3.20;;;9.90;91.20;;;;;;6066080;23;20445;-79
2021/01/20 12:22:22;;;;;;;2.93;2.50;;;9.80;91.60;;;;;;6041550;23;20520;-79
2021/01/20 12:24:51;;;;;;;3.90;2.40;;;10.00;91.10;;;;;;6036707;23;20441;-79
2021/01/20 12:27:41;;;;;;;2.50;2.27;;;9.90;91.50;;;;;;6077255;23;20445;-78
2021/01/20 12:30:20;;;;;;;2.97;2.67;;;9.80;91.70;;;;;;6082170;23;20469;-80
2021/01/20 12:32:54;;;;;;;2.50;2.30;;;9.80;92.10;;;;;;6104650;23;20446;-81
2021/01/20 12:35:36;;;;;;;3.10;2.80;;;10.00;91.40;;;;;;6154292;23;20967;-82
2021/01/20 12:38:18;;;;;;;2.70;2.27;;;9.80;92.00;;;;;;6154105;23;20422;-81
2021/01/20 12:40:58;;;;;;;5.80;2.67;;;9.90;92.10;;;;;;6154715;23;20446;-79
2021/01/20 12:43:37;;;;;;;4.63;2.40;;;10.00;91.40;;;;;;6154964;23;20421;-82
2021/01/20 12:46:09;;;;;;;2.83;2.30;;;10.00;91.30;;;;;;6154343;23;20799;-80
2021/01/20 12:49:05;;;;;;;2.90;2.60;;;9.90;92.00;;;;;;6152472;23;20387;-81
2021/01/20 12:51:34;;;;;;;5.37;2.93;;;10.00;91.70;;;;;;6150968;23;20479;-82
2021/01/20 13:47:06;;;;;;;4.07;2.50;;;10.00;92.60;;;;;;6130024;23;20414;-79
2021/01/20 14:00:06;;;;;;;3.77;2.70;;;10.00;93.10;;;;;;6149558;23;20469;-83
2021/01/20 14:50:16;;;;;;;4.77;2.93;;;10.10;94.90;;;;;;6184250;23;20460;-82
2021/01/20 14:52:57;;;;;;;3.60;3.07;;;10.30;94.70;;;;;;6148827;23;20472;-80
2021/01/20 14:55:41;;;;;;;5.23;2.90;;;10.40;94.60;;;;;;6148704;23;20427;-81
2021/01/20 14:58:10;;;;;;;2.97;2.40;;;10.40;94.50;;;;;;6153935;23;20540;-81
2021/01/20 15:00:50;;;;;;;2.63;2.43;;;10.10;94.90;;;;;;6129948;23;20450;-82
2021/01/20 15:06:43;;;;;;;5.00;3.00;;;10.50;94.60;;;;;;6154712;23;20993;-82
2021/01/20 15:09:20;;;;;;;4.87;3.07;;;10.40;94.70;;;;;;6127412;23;20422;-82
2021/01/20 15:47:23;;;;;;;4.63;3.13;;;10.20;96.40;;;;;;6196491;23;20559;-80
2021/01/20 15:51:29;;;;;;;9.40;3.17;;;10.40;96.30;;;;;;6079583;23;20444;-79
2021/01/20 15:54:14;;;;;;;3.77;3.20;;;10.70;95.70;;;;;;6003018;23;20402;-79
2021/01/20 15:56:40;;;;;;;6.00;3.10;;;10.60;95.60;;;;;;6005760;23;20462;-80
2021/01/20 15:59:25;;;;;;;4.77;2.60;;;10.50;95.80;;;;;;6068719;23;20634;-82
2021/01/20 16:01:52;;;;;;;5.70;2.93;;;10.50;96.00;;;;;;6090170;23;20412;-79
2021/01/20 16:04:33;;;;;;;4.67;2.93;;;10.60;96.20;;;;;;6088537;23;21048;-82
2021/01/20 16:07:13;;;;;;;4.00;2.83;;;10.60;96.20;;;;;;6089091;23;20434;-82
2021/01/20 16:09:56;;;;;;;4.73;2.77;;;10.70;95.90;;;;;;6089191;23;20511;-82
2021/01/20 16:13:18;;;;;;;2.80;2.40;;;10.70;96.00;;;;;;6088826;23;20412;-81
2021/01/20 16:15:52;;;;;;;3.10;2.10;;;10.70;96.10;;;;;;6076936;23;20445;-79
2021/01/20 16:18:49;;;;;;;3.93;2.60;;;10.80;96.00;;;;;;6098020;23;20391;-81
2021/01/20 16:21:30;;;;;;;4.20;2.70;;;10.50;96.50;;;;;;6096271;23;20444;-81
2021/01/20 16:24:11;;;;;;;3.07;2.43;;;10.60;96.90;;;;;;6119724;23;20510;-80
2021/01/20 16:26:43;;;;;;;3.70;2.70;;;10.80;96.50;;;;;;6140546;23;20403;-80
2021/01/20 16:29:15;;;;;;;3.47;2.10;;;10.80;96.20;;;;;;6136026;23;20625;-81
2021/01/20 16:32:12;;;;;;;3.73;2.33;;;11.00;96.20;;;;;;6171125;23;20458;-80
2021/01/20 16:38:19;;;;;;;6.23;3.90;;;11.00;96.40;;;;;;6168868;23;20629;-79
2021/01/20 16:41:02;;;;;;;3.17;2.87;;;10.80;96.50;;;;;;6146149;23;20514;-79
2021/01/20 16:43:48;;;;;;;3.13;2.03;;;11.00;96.70;;;;;;6170133;23;20407;-81
2021/01/20 16:46:30;;;;;;;5.40;2.83;;;11.00;96.40;;;;;;6167651;23;20443;-81
2021/01/20 16:49:00;;;;;;;3.20;2.10;;;11.00;96.50;;;;;;6162834;23;20492;-83
2021/01/20 16:51:44;;;;;;;4.80;3.00;;;11.00;96.50;;;;;;6127214;23;20414;-82
2021/01/20 16:54:40;;;;;;;3.40;2.60;;;10.80;96.50;;;;;;6151615;23;20443;-81
2021/01/20 16:57:36;;;;;;;5.63;3.23;;;11.00;96.90;;;;;;6157914;23;20414;-83
2021/01/20 17:00:11;;;;;;;4.03;3.00;;;11.00;96.80;;;;;;6163820;23;20506;-79
2021/01/20 17:03:12;;;;;;;3.90;2.77;;;11.00;96.80;;;;;;6138959;23;20572;-81
2021/01/20 17:05:56;;;;;;;3.20;2.50;;;10.70;97.20;;;;;;6153738;23;20445;-80
2021/01/20 17:08:58;;;;;;;5.60;3.53;;;10.70;97.50;;;;;;6154424;23;20958;-82
2021/01/20 17:11:59;;;;;;;5.23;3.23;;;10.60;98.00;;;;;;6065019;23;20406;-80
2021/01/20 17:15:23;;;;;;;6.20;2.80;;;10.60;98.00;;;;;;5976988;24;20432;-79
2021/01/20 17:18:07;;;;;;;5.27;2.80;;;10.70;98.00;;;;;;5977364;24;20428;-82
2021/01/20 17:21:20;;;;;;;3.80;2.83;;;10.60;98.20;;;;;;5976145;24;20448;-83
2021/01/20 17:24:02;;;;;;;4.13;2.90;;;10.70;98.10;;;;;;5973065;24;20508;-81
2021/01/20 17:26:58;;;;;;;4.60;2.73;;;10.70;98.00;;;;;;5959514;24;20454;-81
2021/01/20 17:29:50;;;;;;;3.67;2.87;;;10.80;98.10;;;;;;5990340;23;20401;-80
2021/01/20 17:32:59;;;;;;;4.07;2.60;;;10.70;98.30;;;;;;5997359;23;20412;-79
2021/01/20 17:39:41;;;;;;;5.50;2.93;;;10.60;98.90;;;;;;5964909;24;20480;-80
2021/01/20 17:42:12;;;;;;;3.47;2.40;;;10.60;99.00;;;;;;6028085;23;20429;-81
2021/01/20 17:45:26;;;;;;;;;;;;;;;;;;;;;
2021/01/20 17:48:23;;;;;;;5.00;3.00;;;10.70;98.60;;;;;;6083894;23;20405;-82
2021/01/20 17:51:21;;;;;;;4.43;3.17;;;10.60;98.90;;;;;;6091891;23;20418;-81
2021/01/20 17:53:51;;;;;;;3.67;2.90;;;10.90;98.30;;;;;;6121982;23;20495;-82
2021/01/20 17:56:37;;;;;;;5.73;3.40;;;10.90;98.30;;;;;;6151290;23;20438;-83
2021/01/20 17:59:14;;;;;;;5.90;3.37;;;10.90;98.30;;;;;;6146768;23;20446;-81
2021/01/20 18:02:00;;;;;;;3.80;3.20;;;11.00;98.30;;;;;;6147445;23;20411;-82
2021/01/20 18:04:55;;;;;;;3.40;3.07;;;10.80;98.40;;;;;;6148353;23;20414;-82
2021/01/20 18:08:07;;;;;;;5.60;2.80;;;10.80;98.70;;;;;;6150218;23;20549;-82
2021/01/20 18:10:38;;;;;;;6.50;3.00;;;10.70;99.10;;;;;;6148068;23;20465;-80
2021/01/20 18:13:25;;;;;;;4.23;2.67;;;10.80;99.40;;;;;;6106309;23;20403;-82
2021/01/20 18:15:59;;;;;;;6.30;2.80;;;10.90;99.00;;;;;;6151241;23;20439;-82
2021/01/20 18:18:56;;;;;;;3.50;3.20;;;11.00;98.60;;;;;;6156367;23;20425;-83
2021/01/20 18:21:51;;;;;;;4.30;2.57;;;10.90;98.80;;;;;;6130674;23;20498;-83
2021/01/20 18:27:59;;;;;;;3.80;3.40;;;10.90;98.80;;;;;;6152134;23;20419;-82
2021/01/20 18:31:08;;;;;;;;;;;;;;;;;;;;;
2021/01/20 18:34:07;;;;;;;3.17;2.87;;;11.00;99.00;;;;;;6150774;23;20402;-82
2021/01/20 18:37:29;;;;;;;;;;;;;;;;;;;;;
2021/01/20 18:40:14;;;;;;;4.70;2.80;;;10.90;99.10;;;;;;6062976;23;20485;-83
2021/01/20 18:43:13;;;;;;;3.47;2.80;;;10.90;99.20;;;;;;6064830;23;20409;-82
2021/01/20 18:46:21;;;;;;;3.10;2.43;;;11.00;99.30;;;;;;6060940;23;20437;-82
2021/01/20 18:52:49;;;;;;;4.23;2.53;;;10.90;99.40;;;;;;6061194;23;20410;-84
2021/01/20 18:55:26;;;;;;;3.13;2.27;;;10.90;99.50;;;;;;6113116;23;20521;-81
2021/01/20 18:58:27;;;;;;;4.07;2.67;;;11.10;99.20;;;;;;6176787;23;20420;-82
2021/01/20 19:01:20;;;;;;;5.27;2.60;;;11.00;99.00;;;;;;6186039;23;20445;-82
2021/01/20 19:07:32;;;;;;;4.23;2.60;;;11.10;99.10;;;;;;6154734;23;20741;-81
2021/01/20 19:10:27;;;;;;;4.70;2.90;;;11.10;99.00;;;;;;6175371;23;20461;-82
2021/01/20 19:13:14;;;;;;;6.10;2.50;;;11.00;99.20;;;;;;6151204;23;21182;-81
2021/01/20 19:16:24;;;;;;;5.23;2.90;;;11.10;99.50;;;;;;6153481;23;20527;-80
2021/01/20 19:19:05;;;;;;;5.80;2.80;;;11.20;99.10;;;;;;6153791;23;20505;-80
2021/01/20 19:22:20;;;;;;;3.53;3.10;;;11.20;98.90;;;;;;6070375;23;20425;-82
2021/01/20 19:25:18;;;;;;;7.73;3.47;;;11.20;98.90;;;;;;6090308;23;20513;-81
2021/01/20 19:28:18;;;;;;;4.30;3.37;;;11.20;98.90;;;;;;6130205;23;20822;-83
2021/01/20 19:31:10;;;;;;;3.33;3.00;;;11.10;99.00;;;;;;6158961;23;20477;-83
2021/01/20 19:34:14;;;;;;;5.00;2.80;;;11.00;99.40;;;;;;6125245;23;20880;-79
2021/01/20 19:37:54;;;;;;;;;;;;;;;;;;;;;
2021/01/20 19:40:30;;;;;;;3.23;2.90;;;11.20;99.00;;;;;;6160062;23;20443;-80
2021/01/20 19:43:46;;;;;;;3.93;3.23;;;11.20;98.90;;;;;;6157373;23;20421;-83
2021/01/20 19:46:13;;;;;;;4.90;3.47;;;11.30;99.00;;;;;;6164929;23;20431;-81
2021/01/20 19:52:12;;;;;;;2.70;2.43;;;11.20;99.20;;;;;;6156337;23;20427;-80
2021/01/20 19:54:53;;;;;;;5.07;1.87;;;11.20;99.30;;;;;;6155676;23;21511;-83
2021/01/20 19:57:36;;;;;;;2.60;1.63;;;11.20;99.30;;;;;;6159880;23;20423;-80
2021/01/20 20:00:14;;;;;;;4.67;1.80;;;11.20;99.40;;;;;;6156810;23;20449;-81
2021/01/20 20:02:44;;;;;;;3.40;2.07;;;11.30;99.00;;;;;;6158886;23;20638;-80
2021/01/20 20:05:18;;;;;;;3.73;2.30;;;11.20;99.40;;;;;;6155293;23;20474;-82
2021/01/20 20:07:47;;;;;;;3.63;2.03;;;11.30;99.30;;;;;;6156076;23;20905;-81
2021/01/20 20:10:25;;;;;;;3.27;2.23;;;11.50;98.90;;;;;;6159059;23;20422;-80
2021/01/20 20:13:06;;;;;;;5.20;1.70;;;11.40;98.80;;;;;;6156578;23;20418;-81
2021/01/20 20:15:50;;;;;;;2.80;2.13;;;11.50;98.70;;;;;;6159983;23;20449;-81
2021/01/20 20:18:45;;;;;;;6.73;2.30;;;11.50;98.80;;;;;;6172172;23;20481;-81
2021/01/20 20:21:29;;;;;;;3.77;2.53;;;11.60;98.80;;;;;;6164590;23;20450;-80
2021/01/20 20:24:02;;;;;;;2.90;2.10;;;11.60;98.40;;;;;;6157402;23;20415;-82
2021/01/20 20:26:34;;;;;;;2.30;2.10;;;11.60;98.70;;;;;;6155808;23;20467;-82
2021/01/20 20:29:23;;;;;;;2.37;1.80;;;11.70;98.20;;;;;;6156273;23;20964;-81
2021/01/20 20:31:49;;;;;;;2.53;1.80;;;11.70;98.20;;;;;;6156308;23;20422;-81
2021/01/20 20:34:51;;;;;;;5.10;1.83;;;11.80;98.40;;;;;;6162545;23;20626;-79
2021/01/20 20:37:58;;;;;;;4.20;1.63;;;11.80;98.10;;;;;;6175931;23;20407;-79
2021/01/20 20:40:41;;;;;;;6.13;2.20;;;11.70;98.30;;;;;;6149337;23;20457;-79
2021/01/20 20:43:14;;;;;;;4.27;1.70;;;11.90;98.10;;;;;;6177668;23;20485;-79
2021/01/20 20:46:00;;;;;;;2.03;1.27;;;12.10;97.60;;;;;;6163536;23;20449;-82
2021/01/20 20:48:51;;;;;;;2.00;1.83;;;12.10;97.50;;;;;;6173649;23;20500;-79
2021/01/20 20:51:32;;;;;;;3.57;1.83;;;12.10;97.30;;;;;;6147397;23;20795;-80
2021/01/20 20:59:33;;;;;;;3.17;1.63;;;12.20;96.80;;;;;;6197929;23;20504;-80
2021/01/20 21:02:17;;;;;;;7.30;1.97;;;12.20;96.70;;;;;;6179063;23;20410;-80
2021/01/20 21:04:49;;;;;;;3.00;1.60;;;12.20;96.70;;;;;;6193554;23;21123;-80
2021/01/20 21:07:21;;;;;;;3.90;1.50;;;12.30;96.70;;;;;;6129426;23;20419;-81
2021/01/20 21:09:50;;;;;;;1.97;1.60;;;12.30;96.30;;;;;;6129548;23;20406;-81
2021/01/20 21:12:28;;;;;;;1.70;1.50;;;12.30;96.60;;;;;;6134155;23;20414;-82
2021/01/20 21:15:11;;;;;;;2.37;1.47;;;12.20;96.30;;;;;;6142227;23;20439;-85
2021/01/20 21:17:42;;;;;;;3.27;1.33;;;12.20;96.30;;;;;;6160242;23;20402;-82
2021/01/20 21:20:12;;;;;;;3.23;1.63;;;12.20;96.60;;;;;;6160435;23;20450;-82
2021/01/20 21:22:49;;;;;;;5.47;1.83;;;12.30;96.30;;;;;;6161205;23;20417;-81
2021/01/20 21:25:16;;;;;;;3.70;1.57;;;12.40;96.00;;;;;;6137235;23;20441;-82
2021/01/20 21:27:46;;;;;;;3.00;1.20;;;12.40;96.10;;;;;;6157748;23;20426;-82
2021/01/20 21:30:17;;;;;;;3.77;1.40;;;12.40;95.80;;;;;;6127815;23;20404;-84